sensor_id;sensor_type;location;lat;lon;timestamp;pressure;altitude;pressure_sealevel;temperature;humidity
10014;BME280;45684;48.358;10.746;2023-01-29T00:00:34;97133.03;;;0.30;100.00
10014;BME280;45684;48.358;10.746;2023-01-29T00:03:02;97136.72;;;0.29;100.00
10014;BME280;45684;48.358;10.746;2023-01-29T00:05:33;97139.59;;;0.28;100.00
10014;BME280;45684;48.358;10.746;2023-01-29T00:08:01;97135.25;;;0.33;100.00
10014;BME280;45684;48.358;10.746;2023-01-29T00:10:29;97136.84;;;0.34;100.00
10014;BME280;45684;48.358;10.746;2023-01-29T00:12:57;97148.25;;;0.23;100.00
10014;BME280;45684;48.358;10.746;2023-01-29T00:15:25;97143.47;;;0.13;100.00
10014;BME280;45684;48.358;10.746;2023-01-29T00:17:53;97142.72;;;0.24;100.00
10014;BME280;45684;48.358;10.746;2023-01-29T00:20:23;97139.38;;;0.29;100.00
10014;BME280;45684;48.358;10.746;2023-01-29T00:22:52;97142.63;;;0.31;100.00
10014;BME280;45684;48.358;10.746;2023-01-29T00:25:20;97143.63;;;0.18;100.00
10014;BME280;45684;48.358;10.746;2023-01-29T00:27:47;97141.44;;;0.27;100.00
10014;BME280;45684;48.358;10.746;2023-01-29T00:30:16;97140.75;;;0.20;100.00
10014;BME280;45684;48.358;10.746;2023-01-29T00:32:45;97140.94;;;0.18;100.00
10014;BME280;45684;48.358;10.746;2023-01-29T00:35:13;97149.09;;;0.23;100.00
10014;BME280;45684;48.358;10.746;2023-01-29T00:37:41;97153.00;;;0.21;100.00
10014;BME280;45684;48.358;10.746;2023-01-29T00:40:12;97143.81;;;0.05;100.00
10014;BME280;45684;48.358;10.746;2023-01-29T00:42:40;97148.13;;;0.18;100.00
10014;BME280;45684;48.358;10.746;2023-01-29T00:45:33;97149.41;;;0.15;100.00
10014;BME280;45684;48.358;10.746;2023-01-29T00:48:05;97141.31;;;0.22;100.00
10014;BME280;45684;48.358;10.746;2023-01-29T00:50:33;97155.22;;;0.24;100.00
10014;BME280;45684;48.358;10.746;2023-01-29T00:53:00;97149.47;;;0.09;100.00
10014;BME280;45684;48.358;10.746;2023-01-29T00:55:30;97149.81;;;0.01;100.00
10014;BME280;45684;48.358;10.746;2023-01-29T00:57:58;97143.81;;;0.05;100.00
10014;BME280;45684;48.358;10.746;2023-01-29T01:00:25;97141.81;;;0.01;100.00
10014;BME280;45684;48.358;10.746;2023-01-29T01:02:53;97131.25;;;-0.06;100.00
10014;BME280;45684;48.358;10.746;2023-01-29T01:05:33;97142.84;;;-0.01;100.00
10014;BME280;45684;48.358;10.746;2023-01-29T01:08:02;97148.16;;;-0.01;100.00
10014;BME280;45684;48.358;10.746;2023-01-29T01:10:59;97148.25;;;-0.07;100.00
10014;BME280;45684;48.358;10.746;2023-01-29T01:13:27;97139.75;;;0.03;100.00
10014;BME280;45684;48.358;10.746;2023-01-29T01:15:55;97151.13;;;0.10;100.00
10014;BME280;45684;48.358;10.746;2023-01-29T01:18:24;97150.28;;;0.09;100.00
10014;BME280;45684;48.358;10.746;2023-01-29T01:20:55;97150.00;;;-0.01;100.00
10014;BME280;45684;48.358;10.746;2023-01-29T01:23:23;97154.50;;;-0.02;100.00
10014;BME280;45684;48.358;10.746;2023-01-29T01:25:51;97148.16;;;-0.01;100.00
10014;BME280;45684;48.358;10.746;2023-01-29T01:28:21;97143.44;;;0.02;100.00
10014;BME280;45684;48.358;10.746;2023-01-29T01:30:49;97142.97;;;0.05;100.00
10014;BME280;45684;48.358;10.746;2023-01-29T01:33:16;97146.91;;;0.02;100.00
10014;BME280;45684;48.358;10.746;2023-01-29T01:35:44;97146.09;;;0.02;100.00
10014;BME280;45684;48.358;10.746;2023-01-29T01:38:12;97142.63;;;0.01;100.00
10014;BME280;45684;48.358;10.746;2023-01-29T01:40:43;97142.50;;;-0.04;100.00
10014;BME280;45684;48.358;10.746;2023-01-29T01:43:12;97138.19;;;-0.05;100.00
10014;BME280;45684;48.358;10.746;2023-01-29T01:45:41;97134.72;;;-0.06;100.00
10014;BME280;45684;48.358;10.746;2023-01-29T01:48:15;97143.88;;;-0.02;100.00
10014;BME280;45684;48.358;10.746;2023-01-29T01:50:45;97139.03;;;-0.05;100.00
10014;BME280;45684;48.358;10.746;2023-01-29T01:53:17;97145.38;;;-0.06;100.00
10014;BME280;45684;48.358;10.746;2023-01-29T01:55:48;97140.19;;;-0.01;100.00
10014;BME280;45684;48.358;10.746;2023-01-29T01:58:19;97154.31;;;0.00;100.00
10014;BME280;45684;48.358;10.746;2023-01-29T02:00:51;97145.59;;;-0.07;100.00
10014;BME280;45684;48.358;10.746;2023-01-29T02:03:21;97145.22;;;-0.11;100.00
10014;BME280;45684;48.358;10.746;2023-01-29T02:06:08;97147.88;;;-0.11;100.00
10014;BME280;45684;48.358;10.746;2023-01-29T02:08:58;97138.72;;;-0.15;100.00
10014;BME280;45684;48.358;10.746;2023-01-29T02:11:46;97129.56;;;-0.19;100.00
10014;BME280;45684;48.358;10.746;2023-01-29T02:14:14;97133.06;;;-0.18;100.00
10014;BME280;45684;48.358;10.746;2023-01-29T02:16:44;97135.88;;;-0.13;100.00
10014;BME280;45684;48.358;10.746;2023-01-29T02:19:20;97132.59;;;-0.15;100.00
10014;BME280;45684;48.358;10.746;2023-01-29T02:22:05;97138.97;;;-0.16;100.00
10014;BME280;45684;48.358;10.746;2023-01-29T02:25:06;97136.75;;;-0.19;100.00
10014;BME280;45684;48.358;10.746;2023-01-29T02:28:09;97135.50;;;-0.17;100.00
10014;BME280;45684;48.358;10.746;2023-01-29T02:30:43;97141.38;;;-0.15;100.00
10014;BME280;45684;48.358;10.746;2023-01-29T02:33:18;97128.47;;;-0.11;100.00
10014;BME280;45684;48.358;10.746;2023-01-29T02:35:55;97129.28;;;-0.11;100.00
10014;BME280;45684;48.358;10.746;2023-01-29T02:38:29;97122.84;;;-0.03;100.00
10014;BME280;45684;48.358;10.746;2023-01-29T02:41:02;97129.09;;;0.03;100.00
10014;BME280;45684;48.358;10.746;2023-01-29T02:43:39;97132.06;;;-0.06;100.00
10014;BME280;45684;48.358;10.746;2023-01-29T02:46:16;97129.28;;;-0.11;100.00
10014;BME280;45684;48.358;10.746;2023-01-29T02:48:51;97130.19;;;-0.17;100.00
10014;BME280;45684;48.358;10.746;2023-01-29T02:51:29;97137.78;;;-0.20;100.00
10014;BME280;45684;48.358;10.746;2023-01-29T02:54:05;97135.56;;;-0.23;100.00
10014;BME280;45684;48.358;10.746;2023-01-29T02:56:36;97141.53;;;-0.28;100.00
10014;BME280;45684;48.358;10.746;2023-01-29T02:59:11;97144.66;;;-0.31;100.00
10014;BME280;45684;48.358;10.746;2023-01-29T03:01:45;97139.72;;;-0.28;100.00
10014;BME280;45684;48.358;10.746;2023-01-29T03:04:19;97140.53;;;-0.27;100.00
10014;BME280;45684;48.358;10.746;2023-01-29T03:06:51;97146.66;;;-0.27;100.00
10014;BME280;45684;48.358;10.746;2023-01-29T03:09:25;97138.88;;;-0.28;100.00
10014;BME280;45684;48.358;10.746;2023-01-29T03:12:01;97132.75;;;-0.29;100.00
10014;BME280;45684;48.358;10.746;2023-01-29T03:14:49;97125.25;;;-0.32;100.00
10014;BME280;45684;48.358;10.746;2023-01-29T03:17:38;97121.31;;;-0.29;100.00
10014;BME280;45684;48.358;10.746;2023-01-29T03:20:10;97118.22;;;-0.26;100.00
10014;BME280;45684;48.358;10.746;2023-01-29T03:22:44;97124.78;;;-0.29;100.00
10014;BME280;45684;48.358;10.746;2023-01-29T03:25:14;97126.88;;;-0.31;100.00
10014;BME280;45684;48.358;10.746;2023-01-29T03:28:01;97133.50;;;-0.21;100.00
10014;BME280;45684;48.358;10.746;2023-01-29T03:30:52;97130.25;;;-0.23;100.00
10014;BME280;45684;48.358;10.746;2023-01-29T03:33:48;97125.84;;;-0.30;100.00
10014;BME280;45684;48.358;10.746;2023-01-29T03:36:20;97132.75;;;-0.29;100.00
10014;BME280;45684;48.358;10.746;2023-01-29T03:38:49;97128.25;;;-0.28;100.00
10014;BME280;45684;48.358;10.746;2023-01-29T03:41:22;97128.50;;;-0.30;100.00
10014;BME280;45684;48.358;10.746;2023-01-29T03:44:00;97121.31;;;-0.29;100.00
10014;BME280;45684;48.358;10.746;2023-01-29T03:46:37;97130.47;;;-0.25;100.00
10014;BME280;45684;48.358;10.746;2023-01-29T03:49:13;97117.63;;;-0.28;100.00
10014;BME280;45684;48.358;10.746;2023-01-29T03:52:02;97108.41;;;-0.26;100.00
10014;BME280;45684;48.358;10.746;2023-01-29T03:54:41;97118.22;;;-0.26;100.00
10014;BME280;45684;48.358;10.746;2023-01-29T03:57:13;97123.97;;;-0.29;100.00
10014;BME280;45684;48.358;10.746;2023-01-29T03:59:50;97130.91;;;-0.28;100.00
10014;BME280;45684;48.358;10.746;2023-01-29T04:02:51;97136.47;;;-0.30;100.00
10014;BME280;45684;48.358;10.746;2023-01-29T04:05:24;97127.97;;;-0.20;100.00
10014;BME280;45684;48.358;10.746;2023-01-29T04:08:13;97129.81;;;-0.20;100.00
10014;BME280;45684;48.358;10.746;2023-01-29T04:10:45;97132.91;;;-0.23;100.00
10014;BME280;45684;48.358;10.746;2023-01-29T04:13:16;97130.91;;;-0.28;100.00
10014;BME280;45684;48.358;10.746;2023-01-29T04:15:48;97130.25;;;-0.23;100.00
10014;BME280;45684;48.358;10.746;2023-01-29T04:18:24;97138.31;;;-0.30;100.00
10014;BME280;45684;48.358;10.746;2023-01-29T04:21:04;97133.66;;;-0.35;100.00
10014;BME280;45684;48.358;10.746;2023-01-29T04:23:34;97122.22;;;-0.35;100.00
10014;BME280;45684;48.358;10.746;2023-01-29T04:26:18;97129.16;;;-0.34;100.00
10014;BME280;45684;48.358;10.746;2023-01-29T04:28:58;97122.00;;;-0.34;100.00
10014;BME280;45684;48.358;10.746;2023-01-29T04:31:29;97123.03;;;-0.35;100.00
10014;BME280;45684;48.358;10.746;2023-01-29T04:34:12;97118.91;;;-0.31;100.00
10014;BME280;45684;48.358;10.746;2023-01-29T04:36:54;97124.66;;;-0.34;100.00
10014;BME280;45684;48.358;10.746;2023-01-29T04:39:30;97124.78;;;-0.29;100.00
10014;BME280;45684;48.358;10.746;2023-01-29T04:42:05;97123.03;;;-0.35;100.00
10014;BME280;45684;48.358;10.746;2023-01-29T04:44:58;97128.06;;;-0.27;100.00
10014;BME280;45684;48.358;10.746;2023-01-29T04:47:32;97125.41;;;-0.27;100.00
10014;BME280;45684;48.358;10.746;2023-01-29T04:50:11;97119.28;;;-0.27;100.00
10014;BME280;45684;48.358;10.746;2023-01-29T04:52:46;97121.31;;;-0.29;100.00
10014;BME280;45684;48.358;10.746;2023-01-29T04:55:23;97126.22;;;-0.26;100.00
10014;BME280;45684;48.358;10.746;2023-01-29T04:57:57;97126.91;;;-0.19;100.00
10014;BME280;45684;48.358;10.746;2023-01-29T05:00:32;97145.19;;;-0.22;100.00
10014;BME280;45684;48.358;10.746;2023-01-29T05:03:02;97138.44;;;-0.25;100.00
10014;BME280;45684;48.358;10.746;2023-01-29T05:05:32;97136.94;;;-0.33;100.00
10014;BME280;45684;48.358;10.746;2023-01-29T05:08:01;97130.72;;;-0.27;100.00
10014;BME280;45684;48.358;10.746;2023-01-29T05:10:29;97138.44;;;-0.25;100.00
10014;BME280;45684;48.358;10.746;2023-01-29T05:12:59;97147.69;;;-0.28;100.00
10014;BME280;45684;48.358;10.746;2023-01-29T05:15:32;97138.81;;;-0.21;100.00
10014;BME280;45684;48.358;10.746;2023-01-29T05:18:02;97151.97;;;-0.27;100.00
10014;BME280;45684;48.358;10.746;2023-01-29T05:20:37;97156.47;;;-0.27;100.00
10014;BME280;45684;48.358;10.746;2023-01-29T05:23:08;97151.22;;;-0.34;100.00
10014;BME280;45684;48.358;10.746;2023-01-29T05:25:37;97156.25;;;-0.26;100.00
10014;BME280;45684;48.358;10.746;2023-01-29T05:28:04;97154.78;;;-0.21;100.00
10014;BME280;45684;48.358;10.746;2023-01-29T05:30:33;97154.78;;;-0.21;100.00
10014;BME280;45684;48.358;10.746;2023-01-29T05:33:02;97149.69;;;-0.23;100.00
10014;BME280;45684;48.358;10.746;2023-01-29T05:35:30;97150.69;;;-0.24;100.00
10014;BME280;45684;48.358;10.746;2023-01-29T05:37:59;97156.00;;;-0.24;100.00
10014;BME280;45684;48.358;10.746;2023-01-29T05:40:27;97158.09;;;-0.26;100.00
10014;BME280;45684;48.358;10.746;2023-01-29T05:42:55;97154.50;;;-0.32;100.00
10014;BME280;45684;48.358;10.746;2023-01-29T05:45:23;97144.91;;;-0.33;100.00
10014;BME280;45684;48.358;10.746;2023-01-29T05:47:55;97141.41;;;-0.33;100.00
10014;BME280;45684;48.358;10.746;2023-01-29T05:50:23;97144.28;;;-0.35;100.00
10014;BME280;45684;48.358;10.746;2023-01-29T05:52:55;97141.88;;;-0.36;100.00
10014;BME280;45684;48.358;10.746;2023-01-29T05:55:25;97137.38;;;-0.36;100.00
10014;BME280;45684;48.358;10.746;2023-01-29T05:57:53;97150.22;;;-0.33;100.00
10014;BME280;45684;48.358;10.746;2023-01-29T06:00:21;97147.19;;;-0.36;100.00
10014;BME280;45684;48.358;10.746;2023-01-29T06:02:49;97146.16;;;-0.35;100.00
10014;BME280;45684;48.358;10.746;2023-01-29T06:05:16;97141.88;;;-0.36;100.00
10014;BME280;45684;48.358;10.746;2023-01-29T06:07:44;97145.78;;;-0.39;100.00
10014;BME280;45684;48.358;10.746;2023-01-29T06:10:14;97148.66;;;-0.40;100.00
10014;BME280;45684;48.358;10.746;2023-01-29T06:12:44;97147.63;;;-0.39;100.00
10014;BME280;45684;48.358;10.746;2023-01-29T06:15:12;97142.31;;;-0.39;100.00
10014;BME280;45684;48.358;10.746;2023-01-29T06:17:41;97144.53;;;-0.36;100.00
10014;BME280;45684;48.358;10.746;2023-01-29T06:20:10;97144.72;;;-0.38;100.00
10014;BME280;45684;48.358;10.746;2023-01-29T06:22:38;97154.13;;;-0.35;100.00
10014;BME280;45684;48.358;10.746;2023-01-29T06:25:07;97153.06;;;-0.34;100.00
10014;BME280;45684;48.358;10.746;2023-01-29T06:27:35;97153.31;;;-0.36;100.00
10014;BME280;45684;48.358;10.746;2023-01-29T06:30:05;97158.38;;;-0.34;100.00
10014;BME280;45684;48.358;10.746;2023-01-29T06:32:33;97158.63;;;-0.36;100.00
10014;BME280;45684;48.358;10.746;2023-01-29T06:35:01;97146.56;;;-0.38;100.00
10014;BME280;45684;48.358;10.746;2023-01-29T06:37:29;97146.00;;;-0.40;100.00
10014;BME280;45684;48.358;10.746;2023-01-29T06:39:57;97146.56;;;-0.38;100.00
10014;BME280;45684;48.358;10.746;2023-01-29T06:42:25;97139.41;;;-0.38;100.00
10014;BME280;45684;48.358;10.746;2023-01-29T06:44:53;97142.91;;;-0.37;100.00
10014;BME280;45684;48.358;10.746;2023-01-29T06:47:23;97137.38;;;-0.36;100.00
10014;BME280;45684;48.358;10.746;2023-01-29T06:49:51;97132.84;;;-0.35;100.00
10014;BME280;45684;48.358;10.746;2023-01-29T06:52:18;97130.44;;;-0.37;100.00
10014;BME280;45684;48.358;10.746;2023-01-29T06:54:46;97122.66;;;-0.38;100.00
10014;BME280;45684;48.358;10.746;2023-01-29T06:57:14;97125.94;;;-0.36;100.00
10014;BME280;45684;48.358;10.746;2023-01-29T06:59:42;97111.59;;;-0.35;100.00
10014;BME280;45684;48.358;10.746;2023-01-29T07:02:10;97123.03;;;-0.35;100.00
10014;BME280;45684;48.358;10.746;2023-01-29T07:04:41;97124.34;;;-0.26;100.00
10014;BME280;45684;48.358;10.746;2023-01-29T07:07:09;97141.41;;;-0.33;100.00
10014;BME280;45684;48.358;10.746;2023-01-29T07:09:39;97136.31;;;-0.35;100.00
10014;BME280;45684;48.358;10.746;2023-01-29T07:12:07;97139.78;;;-0.34;100.00
10014;BME280;45684;48.358;10.746;2023-01-29T07:14:35;97127.09;;;-0.32;100.00
10014;BME280;45684;48.358;10.746;2023-01-29T07:17:03;97129.97;;;-0.34;100.00
10014;BME280;45684;48.358;10.746;2023-01-29T07:19:31;97138.75;;;-0.33;100.00
10014;BME280;45684;48.358;10.746;2023-01-29T07:22:00;97129.75;;;-0.32;100.00
10014;BME280;45684;48.358;10.746;2023-01-29T07:24:29;97144.66;;;-0.31;100.00
10014;BME280;45684;48.358;10.746;2023-01-29T07:26:57;97133.81;;;-0.30;100.00
10014;BME280;45684;48.358;10.746;2023-01-29T07:29:25;97145.25;;;-0.29;100.00
10014;BME280;45684;48.358;10.746;2023-01-29T07:31:52;97133.56;;;-0.28;100.00
10014;BME280;45684;48.358;10.746;2023-01-29T07:34:20;97143.78;;;-0.25;100.00
10014;BME280;45684;48.358;10.746;2023-01-29T07:36:48;97134.19;;;-0.26;100.00
10014;BME280;45684;48.358;10.746;2023-01-29T07:39:20;97133.13;;;-0.25;100.00
10014;BME280;45684;48.358;10.746;2023-01-29T07:41:48;97134.75;;;-0.24;100.00
10014;BME280;45684;48.358;10.746;2023-01-29T07:44:16;97129.22;;;-0.22;100.00
10014;BME280;45684;48.358;10.746;2023-01-29T07:46:44;97129.56;;;-0.19;100.00
10014;BME280;45684;48.358;10.746;2023-01-29T07:49:12;97114.91;;;-0.21;100.00
10014;BME280;45684;48.358;10.746;2023-01-29T07:51:40;97124.88;;;-0.17;100.00
10014;BME280;45684;48.358;10.746;2023-01-29T07:54:08;97126.03;;;-0.13;100.00
10014;BME280;45684;48.358;10.746;2023-01-29T07:56:37;97123.81;;;-0.16;100.00
10014;BME280;45684;48.358;10.746;2023-01-29T07:59:05;97125.91;;;-0.18;100.00
10014;BME280;45684;48.358;10.746;2023-01-29T08:01:32;97130.56;;;-0.13;100.00
10014;BME280;45684;48.358;10.746;2023-01-29T08:04:00;97136.38;;;-0.05;100.00
10014;BME280;45684;48.358;10.746;2023-01-29T08:06:28;97134.72;;;-0.06;100.00
10014;BME280;45684;48.358;10.746;2023-01-29T08:08:56;97138.81;;;-0.03;100.00
10014;BME280;45684;48.358;10.746;2023-01-29T08:11:25;97143.38;;;-0.10;100.00
10014;BME280;45684;48.358;10.746;2023-01-29T08:13:54;97148.50;;;-0.09;100.00
10014;BME280;45684;48.358;10.746;2023-01-29T08:16:22;97146.63;;;-0.08;100.00
10014;BME280;45684;48.358;10.746;2023-01-29T08:18:50;97152.75;;;-0.08;100.00
10014;BME280;45684;48.358;10.746;2023-01-29T08:21:18;97161.78;;;-0.09;100.00
10014;BME280;45684;48.358;10.746;2023-01-29T08:23:46;97159.94;;;-0.08;100.00
10014;BME280;45684;48.358;10.746;2023-01-29T08:26:14;97159.47;;;-0.05;100.00
10014;BME280;45684;48.358;10.746;2023-01-29T08:28:42;97160.31;;;-0.05;100.00
10014;BME280;45684;48.358;10.746;2023-01-29T08:31:15;97161.91;;;-0.04;100.00
10014;BME280;45684;48.358;10.746;2023-01-29T08:33:43;97165.63;;;-0.05;100.00
10014;BME280;45684;48.358;10.746;2023-01-29T08:36:11;97173.34;;;-0.03;100.00
10014;BME280;45684;48.358;10.746;2023-01-29T08:38:39;97165.97;;;-0.01;100.00
10014;BME280;45684;48.358;10.746;2023-01-29T08:41:07;97174.22;;;0.09;100.00
10014;BME280;45684;48.358;10.746;2023-01-29T08:43:35;97184.03;;;0.09;100.00
10014;BME280;45684;48.358;10.746;2023-01-29T08:46:07;97180.19;;;0.05;100.00
10014;BME280;45684;48.358;10.746;2023-01-29T08:48:36;97196.00;;;-0.01;100.00
10014;BME280;45684;48.358;10.746;2023-01-29T08:51:05;97188.28;;;-0.02;100.00
10014;BME280;45684;48.358;10.746;2023-01-29T08:53:32;97189.69;;;0.01;100.00
10014;BME280;45684;48.358;10.746;2023-01-29T08:56:00;97185.63;;;-0.02;100.00
10014;BME280;45684;48.358;10.746;2023-01-29T08:58:28;97174.97;;;-0.02;100.00
10014;BME280;45684;48.358;10.746;2023-01-29T09:01:04;97175.22;;;-0.04;100.00
10014;BME280;45684;48.358;10.746;2023-01-29T09:03:34;97179.25;;;-0.01;100.00
10014;BME280;45684;48.358;10.746;2023-01-29T09:06:03;97183.91;;;0.04;100.00
10014;BME280;45684;48.358;10.746;2023-01-29T09:08:31;97182.72;;;-0.01;100.00
10014;BME280;45684;48.358;10.746;2023-01-29T09:11:01;97193.16;;;0.01;100.00
10014;BME280;45684;48.358;10.746;2023-01-29T09:13:29;97191.88;;;0.04;100.00
10014;BME280;45684;48.358;10.746;2023-01-29T09:15:58;97198.59;;;0.06;100.00
10014;BME280;45684;48.358;10.746;2023-01-29T09:18:26;97193.06;;;0.08;100.00
10014;BME280;45684;48.358;10.746;2023-01-29T09:20:55;97189.81;;;0.06;100.00
10014;BME280;45684;48.358;10.746;2023-01-29T09:23:24;97199.03;;;0.03;100.00
10014;BME280;45684;48.358;10.746;2023-01-29T09:26:02;97200.81;;;0.09;100.00
10014;BME280;45684;48.358;10.746;2023-01-29T09:28:30;97209.09;;;0.19;100.00
10014;BME280;45684;48.358;10.746;2023-01-29T09:31:00;97212.56;;;0.20;100.00
10014;BME280;45684;48.358;10.746;2023-01-29T09:33:29;97215.66;;;0.17;100.00
10014;BME280;45684;48.358;10.746;2023-01-29T09:35:58;97222.00;;;0.16;100.00
10014;BME280;45684;48.358;10.746;2023-01-29T09:38:28;97220.28;;;0.21;100.00
10014;BME280;45684;48.358;10.746;2023-01-29T09:41:11;97217.19;;;0.24;100.00
10014;BME280;45684;48.358;10.746;2023-01-29T09:43:47;97222.00;;;0.16;100.00
10014;BME280;45684;48.358;10.746;2023-01-29T09:46:20;97226.72;;;0.14;100.00
10014;BME280;45684;48.358;10.746;2023-01-29T09:49:05;97230.41;;;0.13;100.00
10014;BME280;45684;48.358;10.746;2023-01-29T09:51:42;97230.00;;;0.16;100.00
10014;BME280;45684;48.358;10.746;2023-01-29T09:54:17;97228.28;;;0.21;100.00
10014;BME280;45684;48.358;10.746;2023-01-29T09:56:49;97229.09;;;0.22;100.00
10014;BME280;45684;48.358;10.746;2023-01-29T09:59:21;97220.22;;;0.28;100.00
10014;BME280;45684;48.358;10.746;2023-01-29T10:01:58;97218.94;;;0.31;100.00
10014;BME280;45684;48.358;10.746;2023-01-29T10:08:07;97226.84;;;0.37;100.00
10014;BME280;45684;48.358;10.746;2023-01-29T10:10:47;97226.16;;;0.42;100.00
10014;BME280;45684;48.358;10.746;2023-01-29T10:13:27;97213.28;;;0.57;100.00
10014;BME280;45684;48.358;10.746;2023-01-29T10:16:06;97216.31;;;0.61;100.00
10014;BME280;45684;48.358;10.746;2023-01-29T10:18:52;97210.69;;;0.50;100.00
10014;BME280;45684;48.358;10.746;2023-01-29T10:21:35;97211.06;;;0.54;100.00
10014;BME280;45684;48.358;10.746;2023-01-29T10:24:13;97201.16;;;0.61;100.00
10014;BME280;45684;48.358;10.746;2023-01-29T10:26:49;97191.75;;;0.59;100.00
10014;BME280;45684;48.358;10.746;2023-01-29T10:29:19;97190.28;;;0.33;100.00
10014;BME280;45684;48.358;10.746;2023-01-29T10:31:51;97196.09;;;0.41;100.00
10014;BME280;45684;48.358;10.746;2023-01-29T10:34:26;97195.78;;;0.49;100.00
10014;BME280;45684;48.358;10.746;2023-01-29T10:36:54;97188.97;;;0.54;100.00
10014;BME280;45684;48.358;10.746;2023-01-29T10:39:24;97189.41;;;0.50;100.00
10014;BME280;45684;48.358;10.746;2023-01-29T10:42:01;97187.09;;;0.42;100.00
10014;BME280;45684;48.358;10.746;2023-01-29T10:44:42;97187.13;;;0.54;100.00
10014;BME280;45684;48.358;10.746;2023-01-29T10:50:16;97184.69;;;0.53;100.00
10014;BME280;45684;48.358;10.746;2023-01-29T10:53:07;97168.50;;;0.54;100.00
10014;BME280;45684;48.358;10.746;2023-01-29T10:55:48;97170.47;;;0.59;100.00
10014;BME280;45684;48.358;10.746;2023-01-29T10:58:28;97163.53;;;0.58;100.00
10014;BME280;45684;48.358;10.746;2023-01-29T11:00:57;97161.91;;;0.57;100.00
10014;BME280;45684;48.358;10.746;2023-01-29T11:03:27;97168.25;;;0.56;100.00
10014;BME280;45684;48.358;10.746;2023-01-29T11:06:03;97170.91;;;0.56;100.00
10014;BME280;45684;48.358;10.746;2023-01-29T11:08:37;97162.72;;;0.57;100.00
10014;BME280;45684;48.358;10.746;2023-01-29T11:11:11;97164.66;;;0.50;100.00
10014;BME280;45684;48.358;10.746;2023-01-29T11:13:44;97152.16;;;0.50;100.00
10014;BME280;45684;48.358;10.746;2023-01-29T11:16:14;97152.97;;;0.51;100.00
10014;BME280;45684;48.358;10.746;2023-01-29T11:18:54;97153.81;;;0.52;100.00
10014;BME280;45684;48.358;10.746;2023-01-29T11:21:22;97136.78;;;0.53;100.00
10014;BME280;45684;48.358;10.746;2023-01-29T11:24:04;97138.41;;;0.54;100.00
10014;BME280;45684;48.358;10.746;2023-01-29T11:26:34;97132.03;;;0.55;100.00
10014;BME280;45684;48.358;10.746;2023-01-29T11:29:28;97128.94;;;0.58;100.00
10014;BME280;45684;48.358;10.746;2023-01-29T11:31:58;97124.19;;;0.48;100.00
10014;BME280;45684;48.358;10.746;2023-01-29T11:34:27;97123.50;;;0.53;100.00
10014;BME280;45684;48.358;10.746;2023-01-29T11:36:56;97131.47;;;0.53;100.00
10014;BME280;45684;48.358;10.746;2023-01-29T11:39:26;97120.94;;;0.58;100.00
10014;BME280;45684;48.358;10.746;2023-01-29T11:41:55;97128.81;;;0.53;100.00
10014;BME280;45684;48.358;10.746;2023-01-29T11:44:31;97126.72;;;0.55;100.00
10014;BME280;45684;48.358;10.746;2023-01-29T11:47:10;97128.13;;;0.57;100.00
10014;BME280;45684;48.358;10.746;2023-01-29T11:49:43;97125.34;;;0.64;100.00
10014;BME280;45684;48.358;10.746;2023-01-29T11:52:13;97120.75;;;0.71;100.00
10014;BME280;45684;48.358;10.746;2023-01-29T11:54:44;97123.97;;;0.73;100.00
10014;BME280;45684;48.358;10.746;2023-01-29T11:57:23;97119.81;;;0.77;100.00
10014;BME280;45684;48.358;10.746;2023-01-29T11:59:55;97130.09;;;0.73;100.00
10014;BME280;45684;48.358;10.746;2023-01-29T12:02:28;97130.81;;;0.81;100.00
10014;BME280;45684;48.358;10.746;2023-01-29T12:05:01;97130.09;;;0.73;100.00
10014;BME280;45684;48.358;10.746;2023-01-29T12:07:30;97135.06;;;0.70;100.00
10014;BME280;45684;48.358;10.746;2023-01-29T12:09:58;97124.66;;;0.68;100.00
10014;BME280;45684;48.358;10.746;2023-01-29T12:12:33;97122.47;;;0.65;100.00
10014;BME280;45684;48.358;10.746;2023-01-29T12:15:13;97111.13;;;0.70;100.00
10014;BME280;45684;48.358;10.746;2023-01-29T12:17:46;97101.53;;;0.69;100.00
10014;BME280;45684;48.358;10.746;2023-01-29T12:20:22;97102.44;;;0.63;100.00
10014;BME280;45684;48.358;10.746;2023-01-29T12:22:57;97099.66;;;0.58;100.00
10014;BME280;45684;48.358;10.746;2023-01-29T12:25:35;97084.50;;;0.58;100.00
10014;BME280;45684;48.358;10.746;2023-01-29T12:28:14;97075.38;;;0.66;100.00
10014;BME280;45684;48.358;10.746;2023-01-29T12:30:55;97062.97;;;0.60;100.00
10014;BME280;45684;48.358;10.746;2023-01-29T12:33:40;97061.84;;;0.67;100.00
10014;BME280;45684;48.358;10.746;2023-01-29T12:36:13;97059.41;;;0.66;100.00
10014;BME280;45684;48.358;10.746;2023-01-29T12:38:44;97054.53;;;0.63;100.00
10014;BME280;45684;48.358;10.746;2023-01-29T12:41:24;97052.81;;;0.68;100.00
10014;BME280;45684;48.358;10.746;2023-01-29T12:43:57;97049.78;;;0.65;100.00
10014;BME280;45684;48.358;10.746;2023-01-29T12:46:29;97044.72;;;0.63;100.00
10014;BME280;45684;48.358;10.746;2023-01-29T12:49:01;97045.50;;;0.64;100.00
10014;BME280;45684;48.358;10.746;2023-01-29T12:51:36;97044.34;;;0.60;100.00
10014;BME280;45684;48.358;10.746;2023-01-29T12:54:07;97052.94;;;0.62;100.00
10014;BME280;45684;48.358;10.746;2023-01-29T12:56:38;97046.31;;;0.64;100.00
10014;BME280;45684;48.358;10.746;2023-01-29T12:59:14;97037.53;;;0.64;100.00
10014;BME280;45684;48.358;10.746;2023-01-29T13:01:48;97042.16;;;0.57;100.00
10014;BME280;45684;48.358;10.746;2023-01-29T13:04:29;97033.13;;;0.58;100.00
10014;BME280;45684;48.358;10.746;2023-01-29T13:07:26;97037.53;;;0.64;100.00
10014;BME280;45684;48.358;10.746;2023-01-29T13:10:09;97036.38;;;0.60;100.00
10014;BME280;45684;48.358;10.746;2023-01-29T13:13:11;97032.44;;;0.62;100.00
10014;BME280;45684;48.358;10.746;2023-01-29T13:15:42;97028.38;;;0.60;100.00
10014;BME280;45684;48.358;10.746;2023-01-29T13:18:32;97031.28;;;0.58;100.00
10014;BME280;45684;48.358;10.746;2023-01-29T13:21:03;97024.34;;;0.57;100.00